sensor_id;sensor_type;location;lat;lon;timestamp;P1;durP1;ratioP1;P2;durP2;ratioP2
21095;SDS011;10706;49.036;12.112;2022-07-06T00:01:14;5.55;;;1.83;;
21095;SDS011;10706;49.036;12.112;2022-07-06T00:03:41;5.55;;;2.20;;
21095;SDS011;10706;49.036;12.112;2022-07-06T00:06:06;5.38;;;2.50;;
21095;SDS011;10706;49.036;12.112;2022-07-06T00:08:32;6.47;;;2.50;;
21095;SDS011;10706;49.036;12.112;2022-07-06T00:10:58;5.07;;;2.38;;
21095;SDS011;10706;49.036;12.112;2022-07-06T00:13:23;6.55;;;2.28;;
21095;SDS011;10706;49.036;12.112;2022-07-06T00:15:49;9.25;;;2.40;;
21095;SDS011;10706;49.036;12.112;2022-07-06T00:18:14;9.93;;;2.58;;
21095;SDS011;10706;49.036;12.112;2022-07-06T00:20:40;12.13;;;2.88;;
21095;SDS011;10706;49.036;12.112;2022-07-06T00:23:05;7.72;;;2.90;;
21095;SDS011;10706;49.036;12.112;2022-07-06T00:25:31;8.82;;;2.40;;
21095;SDS011;10706;49.036;12.112;2022-07-06T00:27:56;7.85;;;2.50;;
21095;SDS011;10706;49.036;12.112;2022-07-06T00:30:22;5.30;;;2.40;;
21095;SDS011;10706;49.036;12.112;2022-07-06T00:32:47;5.03;;;2.55;;
21095;SDS011;10706;49.036;12.112;2022-07-06T00:35:13;10.73;;;2.67;;
21095;SDS011;10706;49.036;12.112;2022-07-06T00:37:39;5.47;;;2.60;;
21095;SDS011;10706;49.036;12.112;2022-07-06T00:40:05;4.88;;;2.47;;
21095;SDS011;10706;49.036;12.112;2022-07-06T00:42:38;7.38;;;2.60;;
21095;SDS011;10706;49.036;12.112;2022-07-06T00:45:07;8.38;;;2.85;;
21095;SDS011;10706;49.036;12.112;2022-07-06T00:47:32;6.30;;;2.70;;
21095;SDS011;10706;49.036;12.112;2022-07-06T00:49:58;8.10;;;2.50;;
21095;SDS011;10706;49.036;12.112;2022-07-06T00:52:39;5.40;;;2.58;;
21095;SDS011;10706;49.036;12.112;2022-07-06T00:55:09;6.50;;;2.67;;
21095;SDS011;10706;49.036;12.112;2022-07-06T00:57:35;3.15;;;2.25;;
21095;SDS011;10706;49.036;12.112;2022-07-06T01:00:02;5.90;;;2.42;;
21095;SDS011;10706;49.036;12.112;2022-07-06T01:02:32;6.80;;;2.75;;
21095;SDS011;10706;49.036;12.112;2022-07-06T01:04:59;5.00;;;2.55;;
21095;SDS011;10706;49.036;12.112;2022-07-06T01:07:25;5.78;;;2.50;;
21095;SDS011;10706;49.036;12.112;2022-07-06T01:09:51;8.65;;;2.67;;
21095;SDS011;10706;49.036;12.112;2022-07-06T01:12:17;6.35;;;2.53;;
21095;SDS011;10706;49.036;12.112;2022-07-06T01:14:42;4.53;;;2.42;;
21095;SDS011;10706;49.036;12.112;2022-07-06T01:17:08;4.63;;;2.30;;
21095;SDS011;10706;49.036;12.112;2022-07-06T01:19:34;5.07;;;2.58;;
21095;SDS011;10706;49.036;12.112;2022-07-06T01:21:59;3.30;;;2.40;;
21095;SDS011;10706;49.036;12.112;2022-07-06T01:24:25;4.13;;;2.55;;
21095;SDS011;10706;49.036;12.112;2022-07-06T01:26:51;3.75;;;2.42;;
21095;SDS011;10706;49.036;12.112;2022-07-06T01:29:17;9.25;;;2.60;;
21095;SDS011;10706;49.036;12.112;2022-07-06T01:31:49;6.20;;;2.53;;
21095;SDS011;10706;49.036;12.112;2022-07-06T01:34:16;9.73;;;2.72;;
21095;SDS011;10706;49.036;12.112;2022-07-06T01:36:42;6.28;;;2.60;;
21095;SDS011;10706;49.036;12.112;2022-07-06T01:39:07;5.00;;;2.45;;
21095;SDS011;10706;49.036;12.112;2022-07-06T01:41:34;3.92;;;2.40;;
21095;SDS011;10706;49.036;12.112;2022-07-06T01:44:00;5.65;;;2.85;;
21095;SDS011;10706;49.036;12.112;2022-07-06T01:46:26;5.57;;;2.45;;
21095;SDS011;10706;49.036;12.112;2022-07-06T01:48:51;5.63;;;2.58;;
21095;SDS011;10706;49.036;12.112;2022-07-06T01:51:17;8.25;;;2.78;;
21095;SDS011;10706;49.036;12.112;2022-07-06T01:53:43;5.82;;;2.40;;
21095;SDS011;10706;49.036;12.112;2022-07-06T01:56:09;8.68;;;2.65;;
21095;SDS011;10706;49.036;12.112;2022-07-06T01:58:35;6.22;;;2.50;;
21095;SDS011;10706;49.036;12.112;2022-07-06T02:01:04;6.35;;;2.50;;
21095;SDS011;10706;49.036;12.112;2022-07-06T02:03:32;5.28;;;2.67;;
21095;SDS011;10706;49.036;12.112;2022-07-06T02:05:57;3.80;;;2.45;;
21095;SDS011;10706;49.036;12.112;2022-07-06T02:08:23;5.22;;;2.40;;
21095;SDS011;10706;49.036;12.112;2022-07-06T02:10:48;8.82;;;2.30;;
21095;SDS011;10706;49.036;12.112;2022-07-06T02:13:14;3.30;;;2.35;;
21095;SDS011;10706;49.036;12.112;2022-07-06T02:15:40;4.30;;;2.33;;
21095;SDS011;10706;49.036;12.112;2022-07-06T02:18:05;3.83;;;2.20;;
21095;SDS011;10706;49.036;12.112;2022-07-06T02:20:31;7.05;;;2.78;;
21095;SDS011;10706;49.036;12.112;2022-07-06T02:22:56;11.20;;;2.50;;
21095;SDS011;10706;49.036;12.112;2022-07-06T02:25:22;5.05;;;2.03;;
21095;SDS011;10706;49.036;12.112;2022-07-06T02:27:47;6.70;;;2.85;;
21095;SDS011;10706;49.036;12.112;2022-07-06T02:30:13;10.30;;;3.05;;
21095;SDS011;10706;49.036;12.112;2022-07-06T02:32:39;6.63;;;2.80;;
21095;SDS011;10706;49.036;12.112;2022-07-06T02:35:04;6.63;;;2.90;;
21095;SDS011;10706;49.036;12.112;2022-07-06T02:37:30;6.18;;;2.67;;
21095;SDS011;10706;49.036;12.112;2022-07-06T02:39:56;7.57;;;2.58;;
21095;SDS011;10706;49.036;12.112;2022-07-06T02:42:21;10.35;;;2.63;;
21095;SDS011;10706;49.036;12.112;2022-07-06T02:44:47;6.10;;;2.75;;
21095;SDS011;10706;49.036;12.112;2022-07-06T02:47:12;4.00;;;2.42;;
21095;SDS011;10706;49.036;12.112;2022-07-06T02:49:38;5.82;;;2.42;;
21095;SDS011;10706;49.036;12.112;2022-07-06T02:52:03;4.35;;;2.50;;
21095;SDS011;10706;49.036;12.112;2022-07-06T02:54:29;6.05;;;2.60;;
21095;SDS011;10706;49.036;12.112;2022-07-06T02:56:54;7.28;;;2.80;;
21095;SDS011;10706;49.036;12.112;2022-07-06T02:59:20;10.07;;;2.47;;
21095;SDS011;10706;49.036;12.112;2022-07-06T03:01:45;5.70;;;2.60;;
21095;SDS011;10706;49.036;12.112;2022-07-06T03:04:11;6.22;;;2.70;;
21095;SDS011;10706;49.036;12.112;2022-07-06T03:06:37;7.00;;;2.50;;
21095;SDS011;10706;49.036;12.112;2022-07-06T03:09:02;4.88;;;2.88;;
21095;SDS011;10706;49.036;12.112;2022-07-06T03:11:28;7.65;;;3.00;;
21095;SDS011;10706;49.036;12.112;2022-07-06T03:13:54;7.45;;;2.67;;
21095;SDS011;10706;49.036;12.112;2022-07-06T03:16:20;7.65;;;2.83;;
21095;SDS011;10706;49.036;12.112;2022-07-06T03:18:45;6.63;;;2.90;;
21095;SDS011;10706;49.036;12.112;2022-07-06T03:21:11;9.00;;;2.80;;
21095;SDS011;10706;49.036;12.112;2022-07-06T03:23:36;9.50;;;3.15;;
21095;SDS011;10706;49.036;12.112;2022-07-06T03:26:02;5.70;;;2.42;;
21095;SDS011;10706;49.036;12.112;2022-07-06T03:28:27;9.02;;;3.25;;
21095;SDS011;10706;49.036;12.112;2022-07-06T03:30:53;5.82;;;3.05;;
21095;SDS011;10706;49.036;12.112;2022-07-06T03:33:18;5.88;;;2.60;;
21095;SDS011;10706;49.036;12.112;2022-07-06T03:35:44;6.30;;;3.00;;
21095;SDS011;10706;49.036;12.112;2022-07-06T03:38:09;6.32;;;3.10;;
21095;SDS011;10706;49.036;12.112;2022-07-06T03:40:35;6.10;;;2.88;;
21095;SDS011;10706;49.036;12.112;2022-07-06T03:43:00;7.18;;;2.70;;
21095;SDS011;10706;49.036;12.112;2022-07-06T03:45:26;5.82;;;2.30;;
21095;SDS011;10706;49.036;12.112;2022-07-06T03:47:51;7.15;;;2.55;;
21095;SDS011;10706;49.036;12.112;2022-07-06T03:50:17;6.05;;;2.97;;
21095;SDS011;10706;49.036;12.112;2022-07-06T03:52:42;6.93;;;2.47;;
21095;SDS011;10706;49.036;12.112;2022-07-06T03:55:08;7.82;;;2.63;;
21095;SDS011;10706;49.036;12.112;2022-07-06T03:57:35;7.00;;;2.50;;
21095;SDS011;10706;49.036;12.112;2022-07-06T04:00:01;5.35;;;2.55;;
21095;SDS011;10706;49.036;12.112;2022-07-06T04:02:28;6.43;;;2.60;;
21095;SDS011;10706;49.036;12.112;2022-07-06T04:04:53;6.13;;;2.80;;
21095;SDS011;10706;49.036;12.112;2022-07-06T04:07:19;9.05;;;2.65;;
21095;SDS011;10706;49.036;12.112;2022-07-06T04:09:44;6.72;;;2.30;;
21095;SDS011;10706;49.036;12.112;2022-07-06T04:12:10;5.05;;;2.60;;
21095;SDS011;10706;49.036;12.112;2022-07-06T04:14:35;11.88;;;2.58;;
21095;SDS011;10706;49.036;12.112;2022-07-06T04:17:01;7.30;;;2.25;;
21095;SDS011;10706;49.036;12.112;2022-07-06T04:19:46;7.22;;;2.38;;
21095;SDS011;10706;49.036;12.112;2022-07-06T04:22:11;7.40;;;2.90;;
21095;SDS011;10706;49.036;12.112;2022-07-06T04:24:37;6.43;;;2.47;;
21095;SDS011;10706;49.036;12.112;2022-07-06T04:27:02;6.40;;;2.50;;
21095;SDS011;10706;49.036;12.112;2022-07-06T04:29:28;5.82;;;2.38;;
21095;SDS011;10706;49.036;12.112;2022-07-06T04:31:53;6.55;;;2.50;;
21095;SDS011;10706;49.036;12.112;2022-07-06T04:34:20;6.97;;;2.25;;
21095;SDS011;10706;49.036;12.112;2022-07-06T04:36:45;7.85;;;2.50;;
21095;SDS011;10706;49.036;12.112;2022-07-06T04:39:11;4.50;;;2.28;;
21095;SDS011;10706;49.036;12.112;2022-07-06T04:41:37;6.22;;;3.20;;
21095;SDS011;10706;49.036;12.112;2022-07-06T04:44:02;3.47;;;2.00;;
21095;SDS011;10706;49.036;12.112;2022-07-06T04:46:28;8.10;;;2.55;;
21095;SDS011;10706;49.036;12.112;2022-07-06T04:48:54;7.75;;;2.72;;
21095;SDS011;10706;49.036;12.112;2022-07-06T04:51:19;3.65;;;2.38;;
21095;SDS011;10706;49.036;12.112;2022-07-06T04:53:45;10.02;;;2.72;;
21095;SDS011;10706;49.036;12.112;2022-07-06T04:56:11;9.55;;;2.45;;
21095;SDS011;10706;49.036;12.112;2022-07-06T04:58:37;5.53;;;2.20;;
21095;SDS011;10706;49.036;12.112;2022-07-06T05:01:05;5.25;;;2.58;;
21095;SDS011;10706;49.036;12.112;2022-07-06T05:03:31;5.40;;;2.20;;
21095;SDS011;10706;49.036;12.112;2022-07-06T05:05:56;7.85;;;2.22;;
21095;SDS011;10706;49.036;12.112;2022-07-06T05:08:22;6.93;;;2.53;;
21095;SDS011;10706;49.036;12.112;2022-07-06T05:10:48;13.68;;;2.63;;
21095;SDS011;10706;49.036;12.112;2022-07-06T05:13:13;6.57;;;2.53;;
21095;SDS011;10706;49.036;12.112;2022-07-06T05:15:39;10.90;;;2.45;;
21095;SDS011;10706;49.036;12.112;2022-07-06T05:18:05;7.57;;;2.97;;
21095;SDS011;10706;49.036;12.112;2022-07-06T05:20:30;4.72;;;2.33;;
21095;SDS011;10706;49.036;12.112;2022-07-06T05:22:56;6.47;;;2.13;;
21095;SDS011;10706;49.036;12.112;2022-07-06T05:25:21;5.07;;;2.20;;
21095;SDS011;10706;49.036;12.112;2022-07-06T05:27:47;8.43;;;2.53;;
21095;SDS011;10706;49.036;12.112;2022-07-06T05:30:12;6.03;;;1.90;;
21095;SDS011;10706;49.036;12.112;2022-07-06T05:32:40;4.07;;;2.20;;
21095;SDS011;10706;49.036;12.112;2022-07-06T05:35:06;4.13;;;2.15;;
21095;SDS011;10706;49.036;12.112;2022-07-06T05:37:32;6.78;;;2.30;;
21095;SDS011;10706;49.036;12.112;2022-07-06T05:39:58;7.22;;;2.42;;
21095;SDS011;10706;49.036;12.112;2022-07-06T05:42:23;7.20;;;2.65;;
21095;SDS011;10706;49.036;12.112;2022-07-06T05:44:49;6.68;;;2.30;;
21095;SDS011;10706;49.036;12.112;2022-07-06T05:47:14;4.78;;;2.30;;
21095;SDS011;10706;49.036;12.112;2022-07-06T05:49:58;6.80;;;2.13;;
21095;SDS011;10706;49.036;12.112;2022-07-06T05:52:44;3.88;;;2.15;;
21095;SDS011;10706;49.036;12.112;2022-07-06T05:55:19;7.55;;;2.58;;
21095;SDS011;10706;49.036;12.112;2022-07-06T05:57:45;9.10;;;2.08;;
21095;SDS011;10706;49.036;12.112;2022-07-06T06:00:11;6.15;;;2.42;;
21095;SDS011;10706;49.036;12.112;2022-07-06T06:02:38;6.43;;;2.30;;
21095;SDS011;10706;49.036;12.112;2022-07-06T06:05:07;3.08;;;1.92;;
21095;SDS011;10706;49.036;12.112;2022-07-06T06:07:37;9.20;;;2.60;;
21095;SDS011;10706;49.036;12.112;2022-07-06T06:10:03;4.18;;;1.98;;
21095;SDS011;10706;49.036;12.112;2022-07-06T06:12:30;6.35;;;2.28;;
21095;SDS011;10706;49.036;12.112;2022-07-06T06:14:56;4.68;;;2.38;;
21095;SDS011;10706;49.036;12.112;2022-07-06T06:17:21;4.38;;;1.90;;
21095;SDS011;10706;49.036;12.112;2022-07-06T06:19:47;5.75;;;2.13;;
21095;SDS011;10706;49.036;12.112;2022-07-06T06:22:13;6.30;;;2.33;;
21095;SDS011;10706;49.036;12.112;2022-07-06T06:24:39;5.47;;;1.92;;
21095;SDS011;10706;49.036;12.112;2022-07-06T06:27:04;5.47;;;2.03;;
21095;SDS011;10706;49.036;12.112;2022-07-06T06:29:30;4.20;;;1.92;;
21095;SDS011;10706;49.036;12.112;2022-07-06T06:31:55;7.10;;;2.30;;
21095;SDS011;10706;49.036;12.112;2022-07-06T06:34:21;4.95;;;2.00;;
21095;SDS011;10706;49.036;12.112;2022-07-06T06:36:46;5.32;;;2.30;;
21095;SDS011;10706;49.036;12.112;2022-07-06T06:39:12;5.00;;;2.20;;
21095;SDS011;10706;49.036;12.112;2022-07-06T06:41:37;7.30;;;2.20;;
21095;SDS011;10706;49.036;12.112;2022-07-06T06:44:03;3.40;;;1.90;;
21095;SDS011;10706;49.036;12.112;2022-07-06T06:46:29;7.13;;;2.63;;
21095;SDS011;10706;49.036;12.112;2022-07-06T06:48:54;5.68;;;2.10;;
21095;SDS011;10706;49.036;12.112;2022-07-06T06:51:20;6.30;;;2.17;;
21095;SDS011;10706;49.036;12.112;2022-07-06T06:53:45;4.70;;;2.17;;
21095;SDS011;10706;49.036;12.112;2022-07-06T06:56:11;5.22;;;2.10;;
21095;SDS011;10706;49.036;12.112;2022-07-06T06:58:37;10.00;;;2.25;;
21095;SDS011;10706;49.036;12.112;2022-07-06T07:01:03;3.53;;;1.92;;
21095;SDS011;10706;49.036;12.112;2022-07-06T07:03:29;6.63;;;2.40;;
21095;SDS011;10706;49.036;12.112;2022-07-06T07:05:55;4.40;;;2.38;;
21095;SDS011;10706;49.036;12.112;2022-07-06T07:08:20;6.88;;;2.03;;
21095;SDS011;10706;49.036;12.112;2022-07-06T07:10:46;8.27;;;2.20;;
21095;SDS011;10706;49.036;12.112;2022-07-06T07:13:11;6.28;;;1.98;;
21095;SDS011;10706;49.036;12.112;2022-07-06T07:15:37;7.45;;;2.17;;
21095;SDS011;10706;49.036;12.112;2022-07-06T07:18:02;3.78;;;2.00;;
21095;SDS011;10706;49.036;12.112;2022-07-06T07:20:28;5.72;;;2.20;;
21095;SDS011;10706;49.036;12.112;2022-07-06T07:22:55;5.28;;;2.03;;
21095;SDS011;10706;49.036;12.112;2022-07-06T07:25:21;3.30;;;1.88;;
21095;SDS011;10706;49.036;12.112;2022-07-06T07:27:46;6.90;;;2.13;;
21095;SDS011;10706;49.036;12.112;2022-07-06T07:30:12;6.75;;;2.22;;
21095;SDS011;10706;49.036;12.112;2022-07-06T07:32:38;4.38;;;2.00;;
21095;SDS011;10706;49.036;12.112;2022-07-06T07:35:07;7.10;;;2.10;;
21095;SDS011;10706;49.036;12.112;2022-07-06T07:37:33;10.48;;;2.00;;
21095;SDS011;10706;49.036;12.112;2022-07-06T07:39:58;7.63;;;2.10;;
21095;SDS011;10706;49.036;12.112;2022-07-06T07:42:24;5.47;;;2.10;;
21095;SDS011;10706;49.036;12.112;2022-07-06T07:44:50;5.80;;;1.88;;
21095;SDS011;10706;49.036;12.112;2022-07-06T07:47:15;3.28;;;1.90;;
21095;SDS011;10706;49.036;12.112;2022-07-06T07:49:41;5.30;;;1.90;;
21095;SDS011;10706;49.036;12.112;2022-07-06T07:52:06;3.85;;;2.05;;
21095;SDS011;10706;49.036;12.112;2022-07-06T07:54:32;5.20;;;2.17;;
21095;SDS011;10706;49.036;12.112;2022-07-06T07:56:58;2.92;;;1.67;;
21095;SDS011;10706;49.036;12.112;2022-07-06T07:59:23;4.15;;;2.00;;
21095;SDS011;10706;49.036;12.112;2022-07-06T08:01:49;4.20;;;2.42;;
21095;SDS011;10706;49.036;12.112;2022-07-06T08:04:15;3.95;;;2.10;;
21095;SDS011;10706;49.036;12.112;2022-07-06T08:06:40;7.45;;;2.33;;
21095;SDS011;10706;49.036;12.112;2022-07-06T08:09:06;3.30;;;1.70;;
21095;SDS011;10706;49.036;12.112;2022-07-06T08:11:32;2.65;;;1.60;;
21095;SDS011;10706;49.036;12.112;2022-07-06T08:13:59;5.40;;;2.33;;
21095;SDS011;10706;49.036;12.112;2022-07-06T08:16:25;7.22;;;2.00;;
21095;SDS011;10706;49.036;12.112;2022-07-06T08:18:50;4.40;;;1.95;;
21095;SDS011;10706;49.036;12.112;2022-07-06T08:21:16;5.30;;;1.70;;
21095;SDS011;10706;49.036;12.112;2022-07-06T08:23:41;4.38;;;1.90;;
21095;SDS011;10706;49.036;12.112;2022-07-06T08:26:07;6.32;;;1.60;;
21095;SDS011;10706;49.036;12.112;2022-07-06T08:28:32;5.15;;;1.88;;
21095;SDS011;10706;49.036;12.112;2022-07-06T08:30:58;3.78;;;1.80;;
21095;SDS011;10706;49.036;12.112;2022-07-06T08:33:23;5.97;;;1.85;;
21095;SDS011;10706;49.036;12.112;2022-07-06T08:35:49;5.35;;;1.60;;
21095;SDS011;10706;49.036;12.112;2022-07-06T08:38:15;3.17;;;1.50;;
21095;SDS011;10706;49.036;12.112;2022-07-06T08:40:40;6.38;;;1.80;;
21095;SDS011;10706;49.036;12.112;2022-07-06T08:43:07;5.85;;;1.90;;
21095;SDS011;10706;49.036;12.112;2022-07-06T08:45:34;4.25;;;1.60;;
21095;SDS011;10706;49.036;12.112;2022-07-06T08:48:03;3.90;;;1.95;;
21095;SDS011;10706;49.036;12.112;2022-07-06T08:50:30;3.65;;;1.85;;
21095;SDS011;10706;49.036;12.112;2022-07-06T08:52:56;4.82;;;1.70;;
21095;SDS011;10706;49.036;12.112;2022-07-06T08:55:22;4.65;;;1.75;;
21095;SDS011;10706;49.036;12.112;2022-07-06T08:57:49;4.55;;;1.60;;
21095;SDS011;10706;49.036;12.112;2022-07-06T09:00:15;7.25;;;2.03;;
21095;SDS011;10706;49.036;12.112;2022-07-06T09:02:41;4.93;;;1.80;;
21095;SDS011;10706;49.036;12.112;2022-07-06T09:05:07;8.32;;;1.83;;
21095;SDS011;10706;49.036;12.112;2022-07-06T09:07:34;3.10;;;1.70;;
21095;SDS011;10706;49.036;12.112;2022-07-06T09:10:00;4.93;;;1.65;;
21095;SDS011;10706;49.036;12.112;2022-07-06T09:12:27;2.80;;;1.35;;
21095;SDS011;10706;49.036;12.112;2022-07-06T09:14:56;5.65;;;1.80;;
21095;SDS011;10706;49.036;12.112;2022-07-06T09:17:26;4.03;;;1.67;;
21095;SDS011;10706;49.036;12.112;2022-07-06T09:19:53;3.45;;;1.77;;
21095;SDS011;10706;49.036;12.112;2022-07-06T09:22:29;2.40;;;1.60;;
21095;SDS011;10706;49.036;12.112;2022-07-06T09:25:06;4.93;;;1.20;;
21095;SDS011;10706;49.036;12.112;2022-07-06T09:27:44;3.28;;;1.38;;
21095;SDS011;10706;49.036;12.112;2022-07-06T09:30:15;3.28;;;1.60;;
21095;SDS011;10706;49.036;12.112;2022-07-06T09:32:42;4.28;;;1.50;;
21095;SDS011;10706;49.036;12.112;2022-07-06T09:35:19;5.05;;;1.42;;
21095;SDS011;10706;49.036;12.112;2022-07-06T09:37:45;5.03;;;1.70;;
21095;SDS011;10706;49.036;12.112;2022-07-06T09:40:16;2.65;;;1.50;;
21095;SDS011;10706;49.036;12.112;2022-07-06T09:42:43;6.28;;;1.73;;
21095;SDS011;10706;49.036;12.112;2022-07-06T09:45:09;4.55;;;1.70;;
21095;SDS011;10706;49.036;12.112;2022-07-06T09:47:35;5.32;;;1.60;;
21095;SDS011;10706;49.036;12.112;2022-07-06T09:50:04;5.03;;;1.45;;
21095;SDS011;10706;49.036;12.112;2022-07-06T09:52:33;4.38;;;1.38;;
21095;SDS011;10706;49.036;12.112;2022-07-06T09:54:59;3.38;;;1.40;;
21095;SDS011;10706;49.036;12.112;2022-07-06T09:57:24;2.00;;;1.50;;
21095;SDS011;10706;49.036;12.112;2022-07-06T09:59:50;4.13;;;1.60;;
21095;SDS011;10706;49.036;12.112;2022-07-06T10:02:16;4.35;;;1.40;;
21095;SDS011;10706;49.036;12.112;2022-07-06T10:04:42;3.55;;;1.30;;
21095;SDS011;10706;49.036;12.112;2022-07-06T10:07:09;4.05;;;1.58;;
21095;SDS011;10706;49.036;12.112;2022-07-06T10:09:35;5.47;;;1.50;;
21095;SDS011;10706;49.036;12.112;2022-07-06T10:12:02;2.72;;;1.45;;
21095;SDS011;10706;49.036;12.112;2022-07-06T10:14:29;5.05;;;1.40;;
21095;SDS011;10706;49.036;12.112;2022-07-06T10:16:56;3.58;;;1.77;;
21095;SDS011;10706;49.036;12.112;2022-07-06T10:19:23;2.33;;;1.30;;
21095;SDS011;10706;49.036;12.112;2022-07-06T10:21:49;2.67;;;1.20;;
21095;SDS011;10706;49.036;12.112;2022-07-06T10:24:16;3.72;;;1.25;;
21095;SDS011;10706;49.036;12.112;2022-07-06T10:26:43;3.10;;;1.40;;
21095;SDS011;10706;49.036;12.112;2022-07-06T10:29:10;4.75;;;1.35;;
21095;SDS011;10706;49.036;12.112;2022-07-06T10:31:37;4.13;;;1.23;;
21095;SDS011;10706;49.036;12.112;2022-07-06T10:34:06;7.43;;;1.40;;
21095;SDS011;10706;49.036;12.112;2022-07-06T10:36:36;3.90;;;1.35;;
21095;SDS011;10706;49.036;12.112;2022-07-06T10:39:03;1.30;;;1.15;;
21095;SDS011;10706;49.036;12.112;2022-07-06T10:41:49;4.47;;;1.35;;
21095;SDS011;10706;49.036;12.112;2022-07-06T10:44:19;2.45;;;1.48;;
21095;SDS011;10706;49.036;12.112;2022-07-06T10:46:53;4.93;;;1.50;;
21095;SDS011;10706;49.036;12.112;2022-07-06T10:49:23;2.95;;;1.20;;
21095;SDS011;10706;49.036;12.112;2022-07-06T10:51:49;4.78;;;1.38;;
21095;SDS011;10706;49.036;12.112;2022-07-06T10:54:15;2.55;;;1.35;;
21095;SDS011;10706;49.036;12.112;2022-07-06T10:56:43;2.83;;;1.40;;
21095;SDS011;10706;49.036;12.112;2022-07-06T11:02:10;5.50;;;1.33;;
21095;SDS011;10706;49.036;12.112;2022-07-06T11:04:44;3.08;;;1.27;;
21095;SDS011;10706;49.036;12.112;2022-07-06T11:07:19;2.65;;;1.27;;
21095;SDS011;10706;49.036;12.112;2022-07-06T11:09:55;7.93;;;1.40;;
21095;SDS011;10706;49.036;12.112;2022-07-06T11:12:22;2.58;;;1.20;;
21095;SDS011;10706;49.036;12.112;2022-07-06T11:14:48;4.00;;;1.35;;
21095;SDS011;10706;49.036;12.112;2022-07-06T11:17:15;3.78;;;1.38;;
21095;SDS011;10706;49.036;12.112;2022-07-06T11:19:50;2.63;;;1.35;;
21095;SDS011;10706;49.036;12.112;2022-07-06T11:22:37;3.08;;;1.20;;
21095;SDS011;10706;49.036;12.112;2022-07-06T11:25:04;1.27;;;1.17;;
21095;SDS011;10706;49.036;12.112;2022-07-06T11:27:30;4.63;;;1.58;;
21095;SDS011;10706;49.036;12.112;2022-07-06T11:29:56;5.18;;;1.17;;
21095;SDS011;10706;49.036;12.112;2022-07-06T11:32:25;2.90;;;1.30;;
21095;SDS011;10706;49.036;12.112;2022-07-06T11:34:51;5.65;;;1.27;;
21095;SDS011;10706;49.036;12.112;2022-07-06T11:37:17;2.22;;;1.20;;
21095;SDS011;10706;49.036;12.112;2022-07-06T11:39:43;3.25;;;1.50;;
21095;SDS011;10706;49.036;12.112;2022-07-06T11:42:11;3.25;;;1.45;;
21095;SDS011;10706;49.036;12.112;2022-07-06T11:44:38;4.47;;;1.58;;
21095;SDS011;10706;49.036;12.112;2022-07-06T11:47:04;4.40;;;2.45;;
21095;SDS011;10706;49.036;12.112;2022-07-06T11:49:31;6.93;;;1.42;;
21095;SDS011;10706;49.036;12.112;2022-07-06T11:51:57;6.22;;;1.40;;
21095;SDS011;10706;49.036;12.112;2022-07-06T11:54:23;5.10;;;1.48;;
21095;SDS011;10706;49.036;12.112;2022-07-06T11:56:50;4.57;;;1.10;;
21095;SDS011;10706;49.036;12.112;2022-07-06T11:59:21;2.20;;;1.38;;
21095;SDS011;10706;49.036;12.112;2022-07-06T12:01:48;3.33;;;1.20;;
21095;SDS011;10706;49.036;12.112;2022-07-06T12:04:14;4.90;;;1.20;;
21095;SDS011;10706;49.036;12.112;2022-07-06T12:06:42;2.38;;;1.20;;
21095;SDS011;10706;49.036;12.112;2022-07-06T12:09:08;4.05;;;1.20;;
21095;SDS011;10706;49.036;12.112;2022-07-06T12:11:34;1.40;;;1.05;;
21095;SDS011;10706;49.036;12.112;2022-07-06T12:14:02;2.05;;;1.08;;
21095;SDS011;10706;49.036;12.112;2022-07-06T12:16:35;8.82;;;1.35;;
21095;SDS011;10706;49.036;12.112;2022-07-06T12:19:02;3.22;;;1.15;;
21095;SDS011;10706;49.036;12.112;2022-07-06T12:21:28;2.97;;;1.00;;
21095;SDS011;10706;49.036;12.112;2022-07-06T12:23:56;2.40;;;1.02;;
21095;SDS011;10706;49.036;12.112;2022-07-06T12:26:23;2.90;;;1.35;;
21095;SDS011;10706;49.036;12.112;2022-07-06T12:29:05;2.90;;;1.00;;
21095;SDS011;10706;49.036;12.112;2022-07-06T12:31:38;2.45;;;1.10;;
21095;SDS011;10706;49.036;12.112;2022-07-06T12:34:05;6.57;;;1.30;;
21095;SDS011;10706;49.036;12.112;2022-07-06T12:37:10;4.30;;;1.30;;
21095;SDS011;10706;49.036;12.112;2022-07-06T12:39:39;6.05;;;1.33;;
21095;SDS011;10706;49.036;12.112;2022-07-06T12:42:16;3.30;;;1.38;;
21095;SDS011;10706;49.036;12.112;2022-07-06T12:44:43;2.60;;;0.95;;
21095;SDS011;10706;49.036;12.112;2022-07-06T12:47:10;1.52;;;0.98;;
21095;SDS011;10706;49.036;12.112;2022-07-06T12:49:36;1.95;;;0.90;;
21095;SDS011;10706;49.036;12.112;2022-07-06T12:54:40;3.53;;;1.00;;
21095;SDS011;10706;49.036;12.112;2022-07-06T12:57:14;4.05;;;1.20;;
21095;SDS011;10706;49.036;12.112;2022-07-06T12:59:45;1.52;;;0.80;;
21095;SDS011;10706;49.036;12.112;2022-07-06T13:02:31;3.58;;;1.20;;
21095;SDS011;10706;49.036;12.112;2022-07-06T13:05:05;5.65;;;1.00;;
21095;SDS011;10706;49.036;12.112;2022-07-06T13:07:35;2.70;;;1.17;;
21095;SDS011;10706;49.036;12.112;2022-07-06T13:10:03;4.07;;;1.55;;
21095;SDS011;10706;49.036;12.112;2022-07-06T13:12:29;2.50;;;1.08;;
21095;SDS011;10706;49.036;12.112;2022-07-06T13:14:55;3.22;;;1.20;;
21095;SDS011;10706;49.036;12.112;2022-07-06T13:17:21;2.00;;;1.08;;
21095;SDS011;10706;49.036;12.112;2022-07-06T13:19:46;2.30;;;1.10;;
21095;SDS011;10706;49.036;12.112;2022-07-06T13:22:12;3.15;;;1.20;;
21095;SDS011;10706;49.036;12.112;2022-07-06T13:24:38;1.40;;;1.10;;
21095;SDS011;10706;49.036;12.112;2022-07-06T13:27:04;2.55;;;0.90;;
21095;SDS011;10706;49.036;12.112;2022-07-06T13:29:30;2.28;;;1.30;;
21095;SDS011;10706;49.036;12.112;2022-07-06T13:31:56;2.33;;;1.10;;
21095;SDS011;10706;49.036;12.112;2022-07-06T13:34:21;3.20;;;1.23;;
21095;SDS011;10706;49.036;12.112;2022-07-06T13:36:48;6.18;;;1.10;;
21095;SDS011;10706;49.036;12.112;2022-07-06T13:39:13;2.15;;;1.30;;
21095;SDS011;10706;49.036;12.112;2022-07-06T13:41:39;3.20;;;1.25;;
21095;SDS011;10706;49.036;12.112;2022-07-06T13:44:05;2.15;;;1.17;;
21095;SDS011;10706;49.036;12.112;2022-07-06T13:46:32;4.43;;;1.13;;
21095;SDS011;10706;49.036;12.112;2022-07-06T13:48:57;3.20;;;1.10;;
21095;SDS011;10706;49.036;12.112;2022-07-06T13:51:24;3.88;;;1.40;;
21095;SDS011;10706;49.036;12.112;2022-07-06T13:53:51;2.88;;;1.20;;
21095;SDS011;10706;49.036;12.112;2022-07-06T13:56:17;1.88;;;0.80;;
21095;SDS011;10706;49.036;12.112;2022-07-06T13:58:43;1.15;;;0.90;;
21095;SDS011;10706;49.036;12.112;2022-07-06T14:01:09;3.28;;;1.20;;
21095;SDS011;10706;49.036;12.112;2022-07-06T14:03:35;3.80;;;1.20;;
21095;SDS011;10706;49.036;12.112;2022-07-06T14:06:02;2.33;;;1.05;;
21095;SDS011;10706;49.036;12.112;2022-07-06T14:08:29;1.88;;;0.93;;
21095;SDS011;10706;49.036;12.112;2022-07-06T14:10:54;5.60;;;1.13;;
21095;SDS011;10706;49.036;12.112;2022-07-06T14:13:21;4.60;;;1.20;;
21095;SDS011;10706;49.036;12.112;2022-07-06T14:15:47;4.25;;;0.98;;
21095;SDS011;10706;49.036;12.112;2022-07-06T14:18:13;3.90;;;1.33;;
21095;SDS011;10706;49.036;12.112;2022-07-06T14:20:39;3.90;;;1.10;;
21095;SDS011;10706;49.036;12.112;2022-07-06T14:23:05;7.03;;;1.13;;
21095;SDS011;10706;49.036;12.112;2022-07-06T14:25:31;1.35;;;1.05;;
21095;SDS011;10706;49.036;12.112;2022-07-06T14:27:57;2.88;;;1.35;;
21095;SDS011;10706;49.036;12.112;2022-07-06T14:30:22;3.22;;;1.27;;
21095;SDS011;10706;49.036;12.112;2022-07-06T14:32:48;7.85;;;1.25;;
21095;SDS011;10706;49.036;12.112;2022-07-06T14:35:13;4.38;;;1.25;;
21095;SDS011;10706;49.036;12.112;2022-07-06T14:37:39;5.20;;;1.20;;